Main page
METAR-TAF:

Airports :

Bauru, São Paulo, Brazil

Bauru Airport

latitude: 22-19S, longitude: 049-04W, elevation: 590 m

Current weather observation

The report was made 29 minutes ago, at 11:00 UTC
Wind 11 kt from the East
Temperature 15°C
Humidity 88%
Pressure 1026 hPa
Visibility: 6000 m

METAR: SBBU 281100Z 08011KT 6000 NSC 15/13 Q1026

Time: 08:29 (11:29 UTC)

Forecast

The report was made 8 hours and 29 minutes ago, at 03:00 UTC
Forecast valid from 28 at 06 UTC to 28 at 18 UTC
Wind 7 kt from the East
Visibility 10 km or more
no clouds below 1500 m and no cumulonimbus
Becoming
from 28 at 07 UTC to 28 at 09 UTC
Visibility: 6000 m

TAF: SBBU 280300Z 2806/2818 08007KT CAVOK TN13/2808Z TX25/2818Z BECMG 2807/2809 6000 NSC RMK PDJ

METAR-TAF

Weather observations and forecasts of more than 4000 airports (METAR and TAF reports).

The available stations are represented by yellow and red dots on the map.

Hover mouse over dot to see the name of the station.

Then click to see weather observations and forecasts.

To change the map : click on the green buttons with a black cross to zoom in, on the green button with a dash to zoom out, or on the green arrows for adjacent maps.


METAR-TAF: